Terminal Aerodrome Forecast
Issued by NWS

Home | Current Version | Previous Version | Text Only | Print | Product List | Glossary On
Versions: 1 2 3 4 5 6 7 8 9 10 11 12 13 14 15 16 17 18 19
000
FTUS44 KTSA 231700
TAFXNA
TAF
KXNA 231720Z 2318/2418 19005KT P6SM BKN060
      TEMPO 2318/2321 4SM -SHRA BR BKN020
     FM240000 VRB03KT P6SM BKN050
     FM240700 VRB03KT 2SM BR SCT050
     FM241400 19005KT P6SM SCT050=

USA.gov is the U.S. government's official web portal to all federal, state and local government web resources and services.